Aeroporto :
LOGIN :

Iscrizione | Disclaimer

   EN    FR    IT 

 










Sommario :    VFR   VFR Marginale   IFR   IFR Intensivo   IFR Molto Intensivo
Visibilità : 
Base nubi : 
>= 8 km
>= 3000ft
5 / 8 km
1000 / 3000 ft
1500m / 5 km
500 / 1000 ft
800 / 1500m
200 / 500 ft
< 800m
< 200 ft
Simboli :   Temporali  Nebbia  Neve Forte  Precipitazioni Forti  Vento > 20 kt
SIGMETs :   Varie  Temporali  Ghiacco  Turbolenza  Onda orograficha  Ceneri Vulcaniche






- Altitudine del aeroporto : 472 ft
- Codice IATA : GME


UMGG - Gomel

ULTIMO METAR :
  • 240300Z 31002MPS 0700 R28/1800 FG VV001 10/10 Q1012 R28/CLRD// NOSIG RMK QBB050

METARs OBSOLETI :
  • 240205Z 32003MPS 0300 R28/0900 FG VV001 10/10 Q1012 R28/CLRD// NOSIG RMK QBB050
  • 240200Z 32003MPS 0900 R28/P2000 FG VV002 10/10 Q1012 R28/CLRD// TEMPO 0300 RMK QBB060
  • 240100Z 25004MPS 3300 BR NSC 10/10 Q1012 R28/D NOSIG

TAF TAF UMGG
Valido dal 24 a 00 ore il 25 a 00 ore UTC


232303Z 2400/2424 24005MPS 4000 BR BKN008
TEMPO 2400/2406 0300 FG VV002
TEMPO 2406/2408 2000 BKN004
TEMPO 2408/2418 20005MPS 2000 SHRA BKN005 BKN020CB
TEMPO 2418/2424 29007MPS 1200 SHRA BKN004 SCT015CB



MetMap, La meteo Aeronautica in un colpo d'occhio ! - Copyright ORBIFLY Dicembre 2007 - Disclaimer

ORBIFLY MET'MAP TEAM :

Programmazione e sviluppo : Alexandra Zaïnal
Concezione : Baudouin d'Aumeries
Aiuto per la programmazione : Marc-Olivier Méhu
Supporto tecnico e logistico : Manuel Goepfert
Aiuto per la traduzione : Arnaldo La Scala

Contatto : metmap@orbifly.com




FONTI E CREDITI :

   NOAA